sensor_id;sensor_type;location;lat;lon;timestamp;temperature;humidity
9730;DHT22;4904;49.152;11.004;2023-08-20T00:01:26;23.90;99.90
9730;DHT22;4904;49.152;11.004;2023-08-20T00:03:54;23.80;99.90
9730;DHT22;4904;49.152;11.004;2023-08-20T00:06:22;23.70;99.90
9730;DHT22;4904;49.152;11.004;2023-08-20T00:08:50;23.60;99.90
9730;DHT22;4904;49.152;11.004;2023-08-20T00:11:16;23.60;99.90
9730;DHT22;4904;49.152;11.004;2023-08-20T00:13:45;23.60;99.90
9730;DHT22;4904;49.152;11.004;2023-08-20T00:16:12;23.70;99.90
9730;DHT22;4904;49.152;11.004;2023-08-20T00:18:40;23.70;99.90
9730;DHT22;4904;49.152;11.004;2023-08-20T00:21:07;23.60;99.90
9730;DHT22;4904;49.152;11.004;2023-08-20T00:23:35;23.50;99.90
9730;DHT22;4904;49.152;11.004;2023-08-20T00:26:02;23.40;99.90
9730;DHT22;4904;49.152;11.004;2023-08-20T00:28:29;23.40;99.90
9730;DHT22;4904;49.152;11.004;2023-08-20T00:31:00;23.40;99.90
9730;DHT22;4904;49.152;11.004;2023-08-20T00:33:27;23.40;99.90
9730;DHT22;4904;49.152;11.004;2023-08-20T00:35:55;23.40;99.90
9730;DHT22;4904;49.152;11.004;2023-08-20T00:38:22;23.40;99.90
9730;DHT22;4904;49.152;11.004;2023-08-20T00:40:48;23.30;99.90
9730;DHT22;4904;49.152;11.004;2023-08-20T00:43:15;23.30;99.90
9730;DHT22;4904;49.152;11.004;2023-08-20T00:45:43;23.20;99.90
9730;DHT22;4904;49.152;11.004;2023-08-20T00:48:11;23.10;99.90
9730;DHT22;4904;49.152;11.004;2023-08-20T00:50:39;23.10;99.90
9730;DHT22;4904;49.152;11.004;2023-08-20T00:53:07;23.20;99.90
9730;DHT22;4904;49.152;11.004;2023-08-20T00:55:35;23.20;99.90
9730;DHT22;4904;49.152;11.004;2023-08-20T00:58:02;23.20;99.90
9730;DHT22;4904;49.152;11.004;2023-08-20T01:00:29;23.20;99.90
9730;DHT22;4904;49.152;11.004;2023-08-20T01:02:57;23.30;99.90
9730;DHT22;4904;49.152;11.004;2023-08-20T01:05:25;23.30;99.90
9730;DHT22;4904;49.152;11.004;2023-08-20T01:08:04;23.30;99.90
9730;DHT22;4904;49.152;11.004;2023-08-20T01:10:39;23.30;99.90
9730;DHT22;4904;49.152;11.004;2023-08-20T01:13:07;23.20;99.90
9730;DHT22;4904;49.152;11.004;2023-08-20T01:15:34;23.00;99.90
9730;DHT22;4904;49.152;11.004;2023-08-20T01:18:01;22.90;99.90
9730;DHT22;4904;49.152;11.004;2023-08-20T01:20:35;22.90;99.90
9730;DHT22;4904;49.152;11.004;2023-08-20T01:23:53;22.90;99.90
9730;DHT22;4904;49.152;11.004;2023-08-20T01:26:46;22.80;99.90
9730;DHT22;4904;49.152;11.004;2023-08-20T01:29:17;22.80;99.90
9730;DHT22;4904;49.152;11.004;2023-08-20T01:31:45;22.70;99.90
9730;DHT22;4904;49.152;11.004;2023-08-20T01:34:12;22.70;99.90
9730;DHT22;4904;49.152;11.004;2023-08-20T01:36:39;22.70;99.90
9730;DHT22;4904;49.152;11.004;2023-08-20T01:39:06;22.70;99.90
9730;DHT22;4904;49.152;11.004;2023-08-20T01:41:34;22.60;99.90
9730;DHT22;4904;49.152;11.004;2023-08-20T01:44:00;22.60;99.90
9730;DHT22;4904;49.152;11.004;2023-08-20T01:46:29;22.50;99.90
9730;DHT22;4904;49.152;11.004;2023-08-20T01:48:56;22.50;99.90
9730;DHT22;4904;49.152;11.004;2023-08-20T01:51:23;22.40;99.90
9730;DHT22;4904;49.152;11.004;2023-08-20T01:53:50;22.40;99.90
9730;DHT22;4904;49.152;11.004;2023-08-20T01:56:17;22.40;99.90
9730;DHT22;4904;49.152;11.004;2023-08-20T01:58:44;22.50;99.90
9730;DHT22;4904;49.152;11.004;2023-08-20T02:01:11;22.40;99.90
9730;DHT22;4904;49.152;11.004;2023-08-20T02:03:39;22.50;99.90
9730;DHT22;4904;49.152;11.004;2023-08-20T02:06:06;22.60;99.90
9730;DHT22;4904;49.152;11.004;2023-08-20T02:08:33;22.40;99.90
9730;DHT22;4904;49.152;11.004;2023-08-20T02:11:01;22.40;99.90
9730;DHT22;4904;49.152;11.004;2023-08-20T02:13:28;22.30;99.90
9730;DHT22;4904;49.152;11.004;2023-08-20T02:15:59;22.20;99.90
9730;DHT22;4904;49.152;11.004;2023-08-20T02:18:27;22.20;99.90
9730;DHT22;4904;49.152;11.004;2023-08-20T02:20:56;21.90;99.90
9730;DHT22;4904;49.152;11.004;2023-08-20T02:23:23;21.80;99.90
9730;DHT22;4904;49.152;11.004;2023-08-20T02:25:50;21.80;99.90
9730;DHT22;4904;49.152;11.004;2023-08-20T02:28:17;21.80;99.90
9730;DHT22;4904;49.152;11.004;2023-08-20T02:30:46;21.90;99.90
9730;DHT22;4904;49.152;11.004;2023-08-20T02:33:13;21.90;99.90
9730;DHT22;4904;49.152;11.004;2023-08-20T02:35:40;21.80;99.90
9730;DHT22;4904;49.152;11.004;2023-08-20T02:38:08;21.80;99.90
9730;DHT22;4904;49.152;11.004;2023-08-20T02:40:39;21.90;99.90
9730;DHT22;4904;49.152;11.004;2023-08-20T02:43:07;21.90;99.90
9730;DHT22;4904;49.152;11.004;2023-08-20T02:45:39;21.80;99.90
9730;DHT22;4904;49.152;11.004;2023-08-20T02:48:07;21.80;99.90
9730;DHT22;4904;49.152;11.004;2023-08-20T02:50:34;21.70;99.90
9730;DHT22;4904;49.152;11.004;2023-08-20T02:53:01;21.70;99.90
9730;DHT22;4904;49.152;11.004;2023-08-20T02:55:30;21.60;99.90
9730;DHT22;4904;49.152;11.004;2023-08-20T02:57:57;21.60;99.90
9730;DHT22;4904;49.152;11.004;2023-08-20T03:00:24;21.60;99.90
9730;DHT22;4904;49.152;11.004;2023-08-20T03:02:51;21.60;99.90
9730;DHT22;4904;49.152;11.004;2023-08-20T03:05:18;21.70;99.90
9730;DHT22;4904;49.152;11.004;2023-08-20T03:07:45;21.70;99.90
9730;DHT22;4904;49.152;11.004;2023-08-20T03:10:12;21.70;99.90
9730;DHT22;4904;49.152;11.004;2023-08-20T03:12:40;21.70;99.90
9730;DHT22;4904;49.152;11.004;2023-08-20T03:15:08;21.70;99.90
9730;DHT22;4904;49.152;11.004;2023-08-20T03:17:35;21.70;99.90
9730;DHT22;4904;49.152;11.004;2023-08-20T03:20:02;21.60;99.90
9730;DHT22;4904;49.152;11.004;2023-08-20T03:22:31;21.60;99.90
9730;DHT22;4904;49.152;11.004;2023-08-20T03:24:58;21.60;99.90
9730;DHT22;4904;49.152;11.004;2023-08-20T03:27:26;21.60;99.90
9730;DHT22;4904;49.152;11.004;2023-08-20T03:29:55;21.50;99.90
9730;DHT22;4904;49.152;11.004;2023-08-20T03:32:22;21.40;99.90
9730;DHT22;4904;49.152;11.004;2023-08-20T03:34:49;21.40;99.90
9730;DHT22;4904;49.152;11.004;2023-08-20T03:37:16;21.40;99.90
9730;DHT22;4904;49.152;11.004;2023-08-20T03:39:43;21.40;99.90
9730;DHT22;4904;49.152;11.004;2023-08-20T03:42:10;21.30;99.90
9730;DHT22;4904;49.152;11.004;2023-08-20T03:44:37;21.30;99.90
9730;DHT22;4904;49.152;11.004;2023-08-20T03:47:05;21.20;99.90
9730;DHT22;4904;49.152;11.004;2023-08-20T03:49:32;21.30;99.90
9730;DHT22;4904;49.152;11.004;2023-08-20T03:51:59;21.30;99.90
9730;DHT22;4904;49.152;11.004;2023-08-20T03:54:27;21.20;99.90
9730;DHT22;4904;49.152;11.004;2023-08-20T03:56:54;21.10;99.90
9730;DHT22;4904;49.152;11.004;2023-08-20T03:59:21;21.00;99.90
9730;DHT22;4904;49.152;11.004;2023-08-20T04:01:48;20.90;99.90
9730;DHT22;4904;49.152;11.004;2023-08-20T04:04:16;21.00;99.90
9730;DHT22;4904;49.152;11.004;2023-08-20T04:06:43;21.00;99.90
9730;DHT22;4904;49.152;11.004;2023-08-20T04:09:10;21.00;99.90
9730;DHT22;4904;49.152;11.004;2023-08-20T04:11:36;21.00;99.90
9730;DHT22;4904;49.152;11.004;2023-08-20T04:14:03;21.00;99.90
9730;DHT22;4904;49.152;11.004;2023-08-20T04:16:30;21.00;99.90
9730;DHT22;4904;49.152;11.004;2023-08-20T04:18:57;21.00;99.90
9730;DHT22;4904;49.152;11.004;2023-08-20T04:21:25;21.10;99.90
9730;DHT22;4904;49.152;11.004;2023-08-20T04:23:52;21.10;99.90
9730;DHT22;4904;49.152;11.004;2023-08-20T04:26:19;21.00;99.90
9730;DHT22;4904;49.152;11.004;2023-08-20T04:28:46;21.00;99.90
9730;DHT22;4904;49.152;11.004;2023-08-20T04:31:13;21.00;99.90
9730;DHT22;4904;49.152;11.004;2023-08-20T04:33:40;21.10;99.90
9730;DHT22;4904;49.152;11.004;2023-08-20T04:36:07;21.10;99.90
9730;DHT22;4904;49.152;11.004;2023-08-20T04:38:35;21.00;99.90
9730;DHT22;4904;49.152;11.004;2023-08-20T04:41:02;21.00;99.90
9730;DHT22;4904;49.152;11.004;2023-08-20T04:43:28;21.00;99.90
9730;DHT22;4904;49.152;11.004;2023-08-20T04:45:55;20.90;99.90
9730;DHT22;4904;49.152;11.004;2023-08-20T04:48:22;20.90;99.90
9730;DHT22;4904;49.152;11.004;2023-08-20T04:50:49;20.90;99.90
9730;DHT22;4904;49.152;11.004;2023-08-20T04:53:16;21.00;99.90
9730;DHT22;4904;49.152;11.004;2023-08-20T04:55:44;20.90;99.90
9730;DHT22;4904;49.152;11.004;2023-08-20T04:58:11;20.90;99.90
9730;DHT22;4904;49.152;11.004;2023-08-20T05:00:38;20.90;99.90
9730;DHT22;4904;49.152;11.004;2023-08-20T05:03:05;21.00;99.90
9730;DHT22;4904;49.152;11.004;2023-08-20T05:05:32;21.00;99.90
9730;DHT22;4904;49.152;11.004;2023-08-20T05:07:58;21.00;99.90
9730;DHT22;4904;49.152;11.004;2023-08-20T05:10:25;21.00;99.90
9730;DHT22;4904;49.152;11.004;2023-08-20T05:12:53;21.10;99.90
9730;DHT22;4904;49.152;11.004;2023-08-20T05:15:20;21.10;99.90
9730;DHT22;4904;49.152;11.004;2023-08-20T05:17:48;21.20;99.90
9730;DHT22;4904;49.152;11.004;2023-08-20T05:20:14;21.20;99.90
9730;DHT22;4904;49.152;11.004;2023-08-20T05:22:41;21.20;99.90
9730;DHT22;4904;49.152;11.004;2023-08-20T05:25:08;21.30;99.90
9730;DHT22;4904;49.152;11.004;2023-08-20T05:27:35;21.30;99.90
9730;DHT22;4904;49.152;11.004;2023-08-20T05:30:04;21.30;99.90
9730;DHT22;4904;49.152;11.004;2023-08-20T05:32:33;21.30;99.90
9730;DHT22;4904;49.152;11.004;2023-08-20T05:35:00;21.30;99.90
9730;DHT22;4904;49.152;11.004;2023-08-20T05:37:27;21.30;99.90
9730;DHT22;4904;49.152;11.004;2023-08-20T05:39:54;21.30;99.90
9730;DHT22;4904;49.152;11.004;2023-08-20T05:42:20;21.30;99.90
9730;DHT22;4904;49.152;11.004;2023-08-20T05:44:47;21.40;99.90
9730;DHT22;4904;49.152;11.004;2023-08-20T05:47:15;21.40;99.90
9730;DHT22;4904;49.152;11.004;2023-08-20T05:49:42;21.40;99.90
9730;DHT22;4904;49.152;11.004;2023-08-20T05:52:09;21.50;99.90
9730;DHT22;4904;49.152;11.004;2023-08-20T05:54:36;21.50;99.90
9730;DHT22;4904;49.152;11.004;2023-08-20T05:57:03;21.60;99.90
9730;DHT22;4904;49.152;11.004;2023-08-20T05:59:30;21.60;99.90
9730;DHT22;4904;49.152;11.004;2023-08-20T06:01:57;21.70;99.90
9730;DHT22;4904;49.152;11.004;2023-08-20T06:04:25;21.80;99.90
9730;DHT22;4904;49.152;11.004;2023-08-20T06:06:51;21.80;99.90
9730;DHT22;4904;49.152;11.004;2023-08-20T06:09:18;21.80;99.90
9730;DHT22;4904;49.152;11.004;2023-08-20T06:11:45;21.90;99.90
9730;DHT22;4904;49.152;11.004;2023-08-20T06:14:12;21.90;99.90
9730;DHT22;4904;49.152;11.004;2023-08-20T06:16:39;22.00;99.90
9730;DHT22;4904;49.152;11.004;2023-08-20T06:19:06;22.00;99.90
9730;DHT22;4904;49.152;11.004;2023-08-20T06:21:35;22.00;99.90
9730;DHT22;4904;49.152;11.004;2023-08-20T06:24:02;22.10;99.90
9730;DHT22;4904;49.152;11.004;2023-08-20T06:26:29;22.10;99.90
9730;DHT22;4904;49.152;11.004;2023-08-20T06:28:56;22.20;99.90
9730;DHT22;4904;49.152;11.004;2023-08-20T06:31:23;22.30;99.90
9730;DHT22;4904;49.152;11.004;2023-08-20T06:33:50;22.30;99.90
9730;DHT22;4904;49.152;11.004;2023-08-20T06:36:17;22.40;99.90
9730;DHT22;4904;49.152;11.004;2023-08-20T06:38:45;22.40;99.90
9730;DHT22;4904;49.152;11.004;2023-08-20T06:41:12;22.50;99.90
9730;DHT22;4904;49.152;11.004;2023-08-20T06:43:39;22.60;99.90
9730;DHT22;4904;49.152;11.004;2023-08-20T06:46:06;22.60;99.90
9730;DHT22;4904;49.152;11.004;2023-08-20T06:48:33;22.70;99.90
9730;DHT22;4904;49.152;11.004;2023-08-20T06:51:08;22.70;99.90
9730;DHT22;4904;49.152;11.004;2023-08-20T06:53:35;22.80;99.90
9730;DHT22;4904;49.152;11.004;2023-08-20T06:56:03;22.80;99.90
9730;DHT22;4904;49.152;11.004;2023-08-20T06:58:30;22.90;99.90
9730;DHT22;4904;49.152;11.004;2023-08-20T07:00:57;23.00;99.90
9730;DHT22;4904;49.152;11.004;2023-08-20T07:03:32;23.10;99.90
9730;DHT22;4904;49.152;11.004;2023-08-20T07:05:59;23.00;99.90
9730;DHT22;4904;49.152;11.004;2023-08-20T07:08:26;23.20;99.90
9730;DHT22;4904;49.152;11.004;2023-08-20T07:10:53;23.20;99.90
9730;DHT22;4904;49.152;11.004;2023-08-20T07:13:22;23.40;99.90
9730;DHT22;4904;49.152;11.004;2023-08-20T07:15:49;23.40;99.90
9730;DHT22;4904;49.152;11.004;2023-08-20T07:18:16;23.50;99.90
9730;DHT22;4904;49.152;11.004;2023-08-20T07:20:43;23.50;99.90
9730;DHT22;4904;49.152;11.004;2023-08-20T07:23:11;23.60;99.90
9730;DHT22;4904;49.152;11.004;2023-08-20T07:25:40;23.70;99.90
9730;DHT22;4904;49.152;11.004;2023-08-20T07:28:07;23.80;99.90
9730;DHT22;4904;49.152;11.004;2023-08-20T07:30:36;23.90;99.90
9730;DHT22;4904;49.152;11.004;2023-08-20T07:33:04;23.90;99.90
9730;DHT22;4904;49.152;11.004;2023-08-20T07:35:31;24.00;99.90
9730;DHT22;4904;49.152;11.004;2023-08-20T07:37:58;24.10;99.90
9730;DHT22;4904;49.152;11.004;2023-08-20T07:40:25;24.20;99.90
9730;DHT22;4904;49.152;11.004;2023-08-20T07:42:52;24.30;99.90
9730;DHT22;4904;49.152;11.004;2023-08-20T07:45:19;24.30;99.90
9730;DHT22;4904;49.152;11.004;2023-08-20T07:47:47;24.40;99.90
9730;DHT22;4904;49.152;11.004;2023-08-20T07:50:14;24.50;99.90
9730;DHT22;4904;49.152;11.004;2023-08-20T07:52:42;24.60;99.90
9730;DHT22;4904;49.152;11.004;2023-08-20T07:55:09;24.70;99.90
9730;DHT22;4904;49.152;11.004;2023-08-20T07:57:36;24.70;99.90
9730;DHT22;4904;49.152;11.004;2023-08-20T08:00:03;24.80;99.90
9730;DHT22;4904;49.152;11.004;2023-08-20T08:02:31;24.80;99.90
9730;DHT22;4904;49.152;11.004;2023-08-20T08:04:59;24.90;99.90
9730;DHT22;4904;49.152;11.004;2023-08-20T08:07:26;24.90;99.90
9730;DHT22;4904;49.152;11.004;2023-08-20T08:09:53;25.00;99.90
9730;DHT22;4904;49.152;11.004;2023-08-20T08:12:20;25.10;99.90
9730;DHT22;4904;49.152;11.004;2023-08-20T08:14:47;25.30;99.90
9730;DHT22;4904;49.152;11.004;2023-08-20T08:17:15;25.30;99.90
9730;DHT22;4904;49.152;11.004;2023-08-20T08:19:42;25.40;99.90
9730;DHT22;4904;49.152;11.004;2023-08-20T08:22:10;25.50;99.90
9730;DHT22;4904;49.152;11.004;2023-08-20T08:24:37;25.70;99.90
9730;DHT22;4904;49.152;11.004;2023-08-20T08:27:03;25.70;99.90
9730;DHT22;4904;49.152;11.004;2023-08-20T08:29:30;25.80;99.90
9730;DHT22;4904;49.152;11.004;2023-08-20T08:31:57;25.90;99.90
9730;DHT22;4904;49.152;11.004;2023-08-20T08:34:24;26.00;99.90
9730;DHT22;4904;49.152;11.004;2023-08-20T08:36:51;26.10;99.90
9730;DHT22;4904;49.152;11.004;2023-08-20T08:39:20;26.20;99.90
9730;DHT22;4904;49.152;11.004;2023-08-20T08:41:51;26.30;99.90
9730;DHT22;4904;49.152;11.004;2023-08-20T08:44:21;26.30;99.90
9730;DHT22;4904;49.152;11.004;2023-08-20T08:46:49;26.50;99.90
9730;DHT22;4904;49.152;11.004;2023-08-20T08:49:17;26.60;99.90
9730;DHT22;4904;49.152;11.004;2023-08-20T08:51:46;26.60;99.90
9730;DHT22;4904;49.152;11.004;2023-08-20T08:54:13;26.70;99.90
9730;DHT22;4904;49.152;11.004;2023-08-20T08:56:43;26.80;99.90
9730;DHT22;4904;49.152;11.004;2023-08-20T08:59:10;26.80;99.90
9730;DHT22;4904;49.152;11.004;2023-08-20T09:01:38;27.00;99.90
9730;DHT22;4904;49.152;11.004;2023-08-20T09:04:06;27.10;99.90
9730;DHT22;4904;49.152;11.004;2023-08-20T09:06:44;27.10;99.90
9730;DHT22;4904;49.152;11.004;2023-08-20T09:09:12;27.20;99.90
9730;DHT22;4904;49.152;11.004;2023-08-20T09:11:38;27.20;99.90
9730;DHT22;4904;49.152;11.004;2023-08-20T09:14:07;27.40;99.90
9730;DHT22;4904;49.152;11.004;2023-08-20T09:16:35;27.40;99.90
9730;DHT22;4904;49.152;11.004;2023-08-20T09:19:03;27.60;99.90
9730;DHT22;4904;49.152;11.004;2023-08-20T09:21:30;27.60;99.90
9730;DHT22;4904;49.152;11.004;2023-08-20T09:23:57;27.70;99.90
9730;DHT22;4904;49.152;11.004;2023-08-20T09:26:25;27.70;99.90
9730;DHT22;4904;49.152;11.004;2023-08-20T09:28:55;27.80;99.90
9730;DHT22;4904;49.152;11.004;2023-08-20T09:31:37;27.90;99.90
9730;DHT22;4904;49.152;11.004;2023-08-20T09:34:04;27.90;99.90
9730;DHT22;4904;49.152;11.004;2023-08-20T09:36:32;28.10;99.90
9730;DHT22;4904;49.152;11.004;2023-08-20T09:39:00;28.20;99.90
9730;DHT22;4904;49.152;11.004;2023-08-20T09:41:27;28.40;99.90
9730;DHT22;4904;49.152;11.004;2023-08-20T09:43:56;28.60;99.90
9730;DHT22;4904;49.152;11.004;2023-08-20T09:46:26;28.60;99.90
9730;DHT22;4904;49.152;11.004;2023-08-20T09:48:55;28.60;99.90
9730;DHT22;4904;49.152;11.004;2023-08-20T09:51:25;28.70;99.90
9730;DHT22;4904;49.152;11.004;2023-08-20T09:53:59;28.70;99.90
9730;DHT22;4904;49.152;11.004;2023-08-20T09:56:27;28.80;99.90
9730;DHT22;4904;49.152;11.004;2023-08-20T09:58:56;28.80;99.90
9730;DHT22;4904;49.152;11.004;2023-08-20T10:01:25;28.90;99.90
9730;DHT22;4904;49.152;11.004;2023-08-20T10:03:53;29.00;99.90
9730;DHT22;4904;49.152;11.004;2023-08-20T10:06:20;29.00;99.90
9730;DHT22;4904;49.152;11.004;2023-08-20T10:08:47;29.00;99.90
9730;DHT22;4904;49.152;11.004;2023-08-20T10:11:15;29.00;99.90
9730;DHT22;4904;49.152;11.004;2023-08-20T10:13:42;29.10;99.90
9730;DHT22;4904;49.152;11.004;2023-08-20T10:16:11;29.30;99.90
9730;DHT22;4904;49.152;11.004;2023-08-20T10:18:40;29.30;99.90
9730;DHT22;4904;49.152;11.004;2023-08-20T10:21:08;29.40;99.90
9730;DHT22;4904;49.152;11.004;2023-08-20T10:23:37;29.60;99.90
9730;DHT22;4904;49.152;11.004;2023-08-20T10:26:07;29.60;99.90
9730;DHT22;4904;49.152;11.004;2023-08-20T10:28:35;29.70;99.90
9730;DHT22;4904;49.152;11.004;2023-08-20T10:31:04;29.80;99.90
9730;DHT22;4904;49.152;11.004;2023-08-20T10:33:31;29.90;99.90
9730;DHT22;4904;49.152;11.004;2023-08-20T10:36:07;29.90;99.90
9730;DHT22;4904;49.152;11.004;2023-08-20T10:38:36;29.80;99.90
9730;DHT22;4904;49.152;11.004;2023-08-20T10:41:06;29.80;99.90
9730;DHT22;4904;49.152;11.004;2023-08-20T10:43:34;29.90;99.90
9730;DHT22;4904;49.152;11.004;2023-08-20T10:46:05;30.00;99.90
9730;DHT22;4904;49.152;11.004;2023-08-20T10:48:33;30.00;99.90
9730;DHT22;4904;49.152;11.004;2023-08-20T10:51:10;30.10;99.90
9730;DHT22;4904;49.152;11.004;2023-08-20T10:53:37;30.10;99.90
9730;DHT22;4904;49.152;11.004;2023-08-20T10:56:11;30.10;99.90
9730;DHT22;4904;49.152;11.004;2023-08-20T10:58:41;30.20;99.90
9730;DHT22;4904;49.152;11.004;2023-08-20T11:01:21;30.20;99.90
9730;DHT22;4904;49.152;11.004;2023-08-20T11:03:50;30.20;99.90
9730;DHT22;4904;49.152;11.004;2023-08-20T11:06:19;30.20;99.90
9730;DHT22;4904;49.152;11.004;2023-08-20T11:08:46;30.20;99.90
9730;DHT22;4904;49.152;11.004;2023-08-20T11:11:13;30.20;99.90
9730;DHT22;4904;49.152;11.004;2023-08-20T11:13:41;30.30;99.90
9730;DHT22;4904;49.152;11.004;2023-08-20T11:16:11;30.40;99.90
9730;DHT22;4904;49.152;11.004;2023-08-20T11:18:39;30.40;99.90
9730;DHT22;4904;49.152;11.004;2023-08-20T11:21:08;30.40;99.90
9730;DHT22;4904;49.152;11.004;2023-08-20T11:23:38;30.60;99.90
9730;DHT22;4904;49.152;11.004;2023-08-20T11:26:11;30.60;99.90
9730;DHT22;4904;49.152;11.004;2023-08-20T11:28:45;30.60;99.90
9730;DHT22;4904;49.152;11.004;2023-08-20T11:31:13;30.70;99.90
9730;DHT22;4904;49.152;11.004;2023-08-20T11:33:41;30.60;99.90
9730;DHT22;4904;49.152;11.004;2023-08-20T11:36:09;30.60;99.90
9730;DHT22;4904;49.152;11.004;2023-08-20T11:38:41;30.60;99.90
9730;DHT22;4904;49.152;11.004;2023-08-20T11:41:08;30.70;99.90
9730;DHT22;4904;49.152;11.004;2023-08-20T11:43:36;30.80;99.90
9730;DHT22;4904;49.152;11.004;2023-08-20T11:46:04;31.00;99.90
9730;DHT22;4904;49.152;11.004;2023-08-20T11:48:32;30.90;99.90
9730;DHT22;4904;49.152;11.004;2023-08-20T11:51:04;31.00;99.90
9730;DHT22;4904;49.152;11.004;2023-08-20T11:53:34;31.00;99.90
9730;DHT22;4904;49.152;11.004;2023-08-20T11:56:03;31.00;99.90
9730;DHT22;4904;49.152;11.004;2023-08-20T11:58:31;31.00;99.90
9730;DHT22;4904;49.152;11.004;2023-08-20T12:00:58;31.10;99.90
9730;DHT22;4904;49.152;11.004;2023-08-20T12:03:29;31.10;99.90
9730;DHT22;4904;49.152;11.004;2023-08-20T12:05:57;31.10;99.90
9730;DHT22;4904;49.152;11.004;2023-08-20T12:08:24;31.20;99.90
9730;DHT22;4904;49.152;11.004;2023-08-20T12:10:51;31.30;99.90
9730;DHT22;4904;49.152;11.004;2023-08-20T12:13:19;31.30;99.90
9730;DHT22;4904;49.152;11.004;2023-08-20T12:15:46;31.40;99.90
9730;DHT22;4904;49.152;11.004;2023-08-20T12:18:14;31.50;99.90
9730;DHT22;4904;49.152;11.004;2023-08-20T12:20:41;31.50;99.90
9730;DHT22;4904;49.152;11.004;2023-08-20T12:23:08;31.60;99.90
9730;DHT22;4904;49.152;11.004;2023-08-20T12:25:35;31.70;99.90
9730;DHT22;4904;49.152;11.004;2023-08-20T12:28:03;31.70;99.90
9730;DHT22;4904;49.152;11.004;2023-08-20T12:30:32;31.80;99.90
9730;DHT22;4904;49.152;11.004;2023-08-20T12:32:59;31.80;99.90
9730;DHT22;4904;49.152;11.004;2023-08-20T12:35:26;31.90;99.90
9730;DHT22;4904;49.152;11.004;2023-08-20T12:37:53;31.90;99.90
9730;DHT22;4904;49.152;11.004;2023-08-20T12:40:20;31.90;99.90
9730;DHT22;4904;49.152;11.004;2023-08-20T12:42:47;32.00;99.90
9730;DHT22;4904;49.152;11.004;2023-08-20T12:45:14;31.90;99.90
9730;DHT22;4904;49.152;11.004;2023-08-20T12:47:42;31.90;99.90
9730;DHT22;4904;49.152;11.004;2023-08-20T12:50:09;31.90;99.90
9730;DHT22;4904;49.152;11.004;2023-08-20T12:52:39;31.90;99.90
9730;DHT22;4904;49.152;11.004;2023-08-20T12:55:06;32.00;99.90
9730;DHT22;4904;49.152;11.004;2023-08-20T12:57:34;32.00;99.90
9730;DHT22;4904;49.152;11.004;2023-08-20T13:00:02;32.10;99.90
9730;DHT22;4904;49.152;11.004;2023-08-20T13:02:35;32.20;99.90
9730;DHT22;4904;49.152;11.004;2023-08-20T13:05:04;32.20;99.90
9730;DHT22;4904;49.152;11.004;2023-08-20T13:07:31;32.30;99.90
9730;DHT22;4904;49.152;11.004;2023-08-20T13:09:59;32.40;99.90
9730;DHT22;4904;49.152;11.004;2023-08-20T13:12:27;32.40;99.90
9730;DHT22;4904;49.152;11.004;2023-08-20T13:14:54;32.40;99.90
9730;DHT22;4904;49.152;11.004;2023-08-20T13:17:22;32.50;99.90
9730;DHT22;4904;49.152;11.004;2023-08-20T13:19:49;32.70;99.90
9730;DHT22;4904;49.152;11.004;2023-08-20T13:22:17;32.80;99.90
9730;DHT22;4904;49.152;11.004;2023-08-20T13:24:44;32.90;99.90
9730;DHT22;4904;49.152;11.004;2023-08-20T13:27:11;32.90;99.90
9730;DHT22;4904;49.152;11.004;2023-08-20T13:29:40;32.90;99.90
9730;DHT22;4904;49.152;11.004;2023-08-20T13:32:07;32.60;99.90
9730;DHT22;4904;49.152;11.004;2023-08-20T13:34:34;32.60;99.90
9730;DHT22;4904;49.152;11.004;2023-08-20T13:37:00;32.60;99.90
9730;DHT22;4904;49.152;11.004;2023-08-20T13:39:29;32.70;99.90
9730;DHT22;4904;49.152;11.004;2023-08-20T13:41:56;32.80;99.90
9730;DHT22;4904;49.152;11.004;2023-08-20T13:44:23;32.90;99.90
9730;DHT22;4904;49.152;11.004;2023-08-20T13:46:49;32.90;99.90
9730;DHT22;4904;49.152;11.004;2023-08-20T13:49:16;33.00;99.90
9730;DHT22;4904;49.152;11.004;2023-08-20T13:51:43;33.00;99.90
9730;DHT22;4904;49.152;11.004;2023-08-20T13:54:10;33.00;99.90
9730;DHT22;4904;49.152;11.004;2023-08-20T13:56:38;32.90;99.90
9730;DHT22;4904;49.152;11.004;2023-08-20T13:59:05;32.80;99.90
9730;DHT22;4904;49.152;11.004;2023-08-20T14:01:32;32.60;99.90
9730;DHT22;4904;49.152;11.004;2023-08-20T14:03:59;32.50;99.90
9730;DHT22;4904;49.152;11.004;2023-08-20T14:06:27;32.40;99.90
9730;DHT22;4904;49.152;11.004;2023-08-20T14:08:54;32.60;99.90
9730;DHT22;4904;49.152;11.004;2023-08-20T14:11:21;32.60;99.90
9730;DHT22;4904;49.152;11.004;2023-08-20T14:13:49;32.70;99.90
9730;DHT22;4904;49.152;11.004;2023-08-20T14:16:16;32.80;99.90
9730;DHT22;4904;49.152;11.004;2023-08-20T14:18:43;32.60;99.90
9730;DHT22;4904;49.152;11.004;2023-08-20T14:21:10;32.60;99.90
9730;DHT22;4904;49.152;11.004;2023-08-20T14:23:37;32.90;99.90
9730;DHT22;4904;49.152;11.004;2023-08-20T14:26:05;32.90;99.90
9730;DHT22;4904;49.152;11.004;2023-08-20T14:28:32;32.90;99.90
9730;DHT22;4904;49.152;11.004;2023-08-20T14:31:03;33.00;99.90
9730;DHT22;4904;49.152;11.004;2023-08-20T14:33:30;33.30;99.90
9730;DHT22;4904;49.152;11.004;2023-08-20T14:35:57;33.40;99.90
9730;DHT22;4904;49.152;11.004;2023-08-20T14:38:24;33.60;99.90
9730;DHT22;4904;49.152;11.004;2023-08-20T14:40:51;33.50;99.90
9730;DHT22;4904;49.152;11.004;2023-08-20T14:43:18;33.60;99.90
9730;DHT22;4904;49.152;11.004;2023-08-20T14:45:45;33.90;99.90
9730;DHT22;4904;49.152;11.004;2023-08-20T14:48:13;33.90;99.90
9730;DHT22;4904;49.152;11.004;2023-08-20T14:50:40;34.00;99.90
9730;DHT22;4904;49.152;11.004;2023-08-20T14:53:07;34.30;99.90
9730;DHT22;4904;49.152;11.004;2023-08-20T14:55:34;34.40;99.90
9730;DHT22;4904;49.152;11.004;2023-08-20T14:58:01;34.90;99.90
9730;DHT22;4904;49.152;11.004;2023-08-20T15:00:31;35.20;99.90
9730;DHT22;4904;49.152;11.004;2023-08-20T15:02:58;36.00;99.90
9730;DHT22;4904;49.152;11.004;2023-08-20T15:05:27;36.60;99.90
9730;DHT22;4904;49.152;11.004;2023-08-20T15:07:54;36.90;99.90
9730;DHT22;4904;49.152;11.004;2023-08-20T15:10:20;37.70;99.90
9730;DHT22;4904;49.152;11.004;2023-08-20T15:12:47;38.10;99.90
9730;DHT22;4904;49.152;11.004;2023-08-20T15:15:14;38.00;99.90
9730;DHT22;4904;49.152;11.004;2023-08-20T15:17:41;37.30;99.90
9730;DHT22;4904;49.152;11.004;2023-08-20T15:20:09;37.10;99.90
9730;DHT22;4904;49.152;11.004;2023-08-20T15:22:38;36.80;99.90
9730;DHT22;4904;49.152;11.004;2023-08-20T15:25:05;36.80;99.90
9730;DHT22;4904;49.152;11.004;2023-08-20T15:27:35;35.70;99.90
9730;DHT22;4904;49.152;11.004;2023-08-20T15:30:03;35.00;99.90
9730;DHT22;4904;49.152;11.004;2023-08-20T15:32:30;34.60;99.90
9730;DHT22;4904;49.152;11.004;2023-08-20T15:34:57;34.90;99.90
9730;DHT22;4904;49.152;11.004;2023-08-20T15:37:24;35.10;99.90
9730;DHT22;4904;49.152;11.004;2023-08-20T15:39:53;34.80;99.90
9730;DHT22;4904;49.152;11.004;2023-08-20T15:42:19;34.70;99.90
9730;DHT22;4904;49.152;11.004;2023-08-20T15:44:47;34.60;99.90
9730;DHT22;4904;49.152;11.004;2023-08-20T15:47:14;35.00;99.90
9730;DHT22;4904;49.152;11.004;2023-08-20T15:49:41;35.10;99.90